createdAt,value
2018-03-17T00:01:41.609Z,19.07
2018-03-17T00:04:09.091Z,19.77
2018-03-17T00:06:37.553Z,21.30
2018-03-17T00:09:05.068Z,21.73
2018-03-17T00:11:32.611Z,24.57
2018-03-17T00:14:00.090Z,22.27
2018-03-17T00:16:27.580Z,19.00
2018-03-17T00:18:55.063Z,20.60
2018-03-17T00:21:22.893Z,22.17
2018-03-17T00:23:50.399Z,18.73
2018-03-17T00:26:18.033Z,22.27
2018-03-17T00:28:45.524Z,21.57
2018-03-17T00:31:13.041Z,22.13
2018-03-17T00:33:40.537Z,21.53
2018-03-17T00:36:08.291Z,24.27
2018-03-17T00:38:35.765Z,21.33
2018-03-17T00:41:03.261Z,18.73
2018-03-17T00:43:31.384Z,20.63
2018-03-17T00:45:58.902Z,21.97
2018-03-17T00:48:26.643Z,24.83
2018-03-17T00:50:54.338Z,25.60
2018-03-17T00:53:21.843Z,26.83
2018-03-17T00:55:49.348Z,27.10
2018-03-17T00:58:17.628Z,22.80
2018-03-17T01:00:46.140Z,27.10
2018-03-17T01:03:13.615Z,26.77
2018-03-17T01:05:41.132Z,25.20
2018-03-17T01:08:09.027Z,25.90
2018-03-17T01:10:38.904Z,23.97
2018-03-17T01:13:06.386Z,25.50
2018-03-17T01:15:34.039Z,21.43
2018-03-17T01:18:01.670Z,18.80
2018-03-17T01:20:31.316Z,20.33
2018-03-17T01:22:58.862Z,18.47
2018-03-17T01:25:28.414Z,21.00
2018-03-17T01:27:55.997Z,18.63
2018-03-17T01:30:24.551Z,15.37
2018-03-17T01:32:53.517Z,17.70
2018-03-17T01:35:21.096Z,16.37
2018-03-17T01:37:49.057Z,18.77
2018-03-17T01:40:16.565Z,14.47
2018-03-17T01:42:44.070Z,17.00
2018-03-17T01:45:11.597Z,16.07
2018-03-17T01:47:39.500Z,15.90
2018-03-17T01:50:07.848Z,14.73
2018-03-17T01:52:35.352Z,13.87
2018-03-17T01:55:02.888Z,14.30
2018-03-17T01:57:30.356Z,15.47
2018-03-17T01:59:57.820Z,16.80
2018-03-17T02:02:25.320Z,15.63
2018-03-17T02:04:52.802Z,14.40
2018-03-17T02:07:20.321Z,15.50
2018-03-17T02:09:47.776Z,19.33
2018-03-17T02:12:15.284Z,13.70
2018-03-17T02:17:17.625Z,16.80
2018-03-17T02:19:46.824Z,15.03
2018-03-17T02:22:14.500Z,15.80
2018-03-17T02:24:42.786Z,16.00
2018-03-17T02:27:11.150Z,17.00
2018-03-17T02:29:38.718Z,20.53
2018-03-17T02:32:06.205Z,17.03
2018-03-17T02:34:33.913Z,17.40
2018-03-17T02:37:01.408Z,16.83
2018-03-17T02:39:28.974Z,19.60
2018-03-17T02:41:56.440Z,16.87
2018-03-17T02:44:23.905Z,18.87
2018-03-17T02:46:51.401Z,16.90
2018-03-17T02:49:19.296Z,18.23
2018-03-17T02:51:47.537Z,18.53
2018-03-17T02:54:15.027Z,18.17
2018-03-17T02:56:43.006Z,17.33
2018-03-17T02:59:10.492Z,22.43
2018-03-17T03:01:37.959Z,18.77
2018-03-17T03:04:05.442Z,22.60
2018-03-17T03:06:32.924Z,24.23
2018-03-17T03:09:00.449Z,21.63
2018-03-17T03:11:27.942Z,21.53
2018-03-17T03:13:55.437Z,22.73
2018-03-17T03:16:22.928Z,22.50
2018-03-17T03:18:50.429Z,25.03
2018-03-17T03:21:18.033Z,25.07
2018-03-17T03:23:45.520Z,23.60
2018-03-17T03:26:13.120Z,30.93
2018-03-17T03:28:40.650Z,21.23
2018-03-17T03:31:08.154Z,24.97
2018-03-17T03:33:35.620Z,27.73
2018-03-17T03:36:03.077Z,28.90
2018-03-17T03:38:31.047Z,27.17
2018-03-17T03:40:58.559Z,27.47
2018-03-17T03:43:26.039Z,25.43
2018-03-17T03:45:53.501Z,30.23
2018-03-17T03:48:20.995Z,27.97
2018-03-17T03:50:48.667Z,28.90
2018-03-17T03:53:16.170Z,30.50
2018-03-17T03:55:43.658Z,32.50
2018-03-17T03:58:11.154Z,27.07
2018-03-17T04:00:39.375Z,28.17
2018-03-17T04:03:06.918Z,31.07
2018-03-17T04:05:34.427Z,30.23
2018-03-17T04:08:01.943Z,31.37
2018-03-17T04:10:30.142Z,29.67
2018-03-17T04:12:57.608Z,28.50
2018-03-17T04:15:25.086Z,35.70
2018-03-17T04:17:52.548Z,31.80
2018-03-17T04:20:20.036Z,32.00
2018-03-17T04:22:47.536Z,38.30
2018-03-17T04:25:15.016Z,34.17
2018-03-17T04:27:42.563Z,33.40
2018-03-17T04:30:10.074Z,38.57
2018-03-17T04:32:37.572Z,35.77
2018-03-17T04:35:05.128Z,41.87
2018-03-17T04:37:32.666Z,36.70
2018-03-17T04:40:00.158Z,40.03
2018-03-17T04:42:27.762Z,35.97
2018-03-17T04:44:55.241Z,40.87
2018-03-17T04:47:22.724Z,38.90
2018-03-17T04:49:50.186Z,40.57
2018-03-17T04:52:17.762Z,42.30
2018-03-17T04:54:45.492Z,44.73
2018-03-17T04:57:12.990Z,39.53
2018-03-17T04:59:40.484Z,43.87
2018-03-17T05:02:08.000Z,43.80
2018-03-17T05:04:35.472Z,42.50
2018-03-17T05:07:02.961Z,39.10
2018-03-17T05:09:30.441Z,35.73
2018-03-17T05:11:57.900Z,41.87
2018-03-17T05:14:25.399Z,41.45
2018-03-17T05:16:53.268Z,40.27
2018-03-17T05:19:20.732Z,39.83
2018-03-17T05:21:48.217Z,42.13
2018-03-17T05:24:15.688Z,38.73
2018-03-17T05:26:43.248Z,40.13
2018-03-17T05:29:10.800Z,44.10
2018-03-17T05:31:38.276Z,44.07
2018-03-17T05:34:05.754Z,41.53
2018-03-17T05:36:33.202Z,48.17
2018-03-17T05:39:00.702Z,44.80
2018-03-17T05:41:28.232Z,43.13
2018-03-17T05:43:55.708Z,41.17
2018-03-17T05:46:23.232Z,43.47
2018-03-17T05:48:50.702Z,44.80
2018-03-17T05:51:19.284Z,45.95
2018-03-17T05:53:46.753Z,45.57
2018-03-17T05:56:14.472Z,45.03
2018-03-17T05:58:41.988Z,46.20
2018-03-17T06:01:09.465Z,45.15
2018-03-17T06:03:36.953Z,45.93
2018-03-17T06:06:04.433Z,45.57
2018-03-17T06:08:33.297Z,41.28
2018-03-17T06:11:00.764Z,45.23
2018-03-17T06:13:28.293Z,43.42
2018-03-17T06:15:55.775Z,48.00
2018-03-17T06:18:24.507Z,44.30
2018-03-17T06:20:52.032Z,42.93
2018-03-17T06:23:19.508Z,44.40
2018-03-17T06:25:47.009Z,43.43
2018-03-17T06:28:14.572Z,42.40
2018-03-17T06:30:42.115Z,45.45
2018-03-17T06:33:09.597Z,44.30
2018-03-17T06:35:37.084Z,42.80
2018-03-17T06:38:04.562Z,42.10
2018-03-17T06:40:32.095Z,47.00
2018-03-17T06:42:59.614Z,42.65
2018-03-17T06:45:27.084Z,47.00
2018-03-17T06:47:54.656Z,37.80
2018-03-17T06:50:22.192Z,43.27
2018-03-17T06:52:49.913Z,43.17
2018-03-17T06:55:17.501Z,48.75
2018-03-17T06:57:45.001Z,48.20
2018-03-17T07:00:12.573Z,45.00
2018-03-17T07:02:40.504Z,54.93
2018-03-17T07:05:08.278Z,54.40
2018-03-17T07:07:35.781Z,49.13
2018-03-17T07:10:04.278Z,53.83
2018-03-17T07:12:31.748Z,61.63
2018-03-17T07:14:59.353Z,50.00
2018-03-17T07:17:26.908Z,51.60
2018-03-17T07:19:54.391Z,46.27
2018-03-17T07:22:21.848Z,57.80
2018-03-17T07:24:49.565Z,60.17
2018-03-17T07:27:17.101Z,56.73
2018-03-17T07:29:44.837Z,51.73
2018-03-17T07:32:12.288Z,58.40
2018-03-17T07:34:39.755Z,51.80
2018-03-17T07:37:07.317Z,53.80
2018-03-17T07:39:34.803Z,61.90
2018-03-17T07:42:02.274Z,53.87
2018-03-17T07:44:30.238Z,50.30
2018-03-17T07:46:57.724Z,57.43
2018-03-17T07:49:25.816Z,53.83
2018-03-17T07:51:53.276Z,59.53
2018-03-17T07:54:20.829Z,56.10
2018-03-17T07:56:48.291Z,56.07
2018-03-17T07:59:15.784Z,59.47
2018-03-17T08:01:43.274Z,69.23
2018-03-17T08:04:10.853Z,58.13
2018-03-17T08:06:38.306Z,61.07
2018-03-17T08:09:05.792Z,52.17
2018-03-17T08:11:33.254Z,52.27
2018-03-17T08:14:00.696Z,54.43
2018-03-17T08:16:28.502Z,56.42
2018-03-17T08:18:55.989Z,53.30
2018-03-17T08:21:23.512Z,54.60
2018-03-17T08:23:51.072Z,53.60
2018-03-17T08:26:22.456Z,50.30
2018-03-17T08:28:49.977Z,55.33
2018-03-17T08:31:17.644Z,58.47
2018-03-17T08:33:45.120Z,58.03
2018-03-17T08:36:12.663Z,55.63
2018-03-17T08:38:40.153Z,49.57
2018-03-17T08:41:07.615Z,53.00
2018-03-17T08:43:35.104Z,54.97
2018-03-17T08:46:02.683Z,57.27
2018-03-17T08:48:30.262Z,60.23
2018-03-17T08:50:57.765Z,53.97
2018-03-17T08:53:25.257Z,56.27
2018-03-17T08:55:52.891Z,53.77
2018-03-17T08:58:20.408Z,61.37
2018-03-17T09:00:48.662Z,54.57
2018-03-17T09:03:16.506Z,57.73
2018-03-17T09:05:44.017Z,61.03
2018-03-17T09:08:11.542Z,57.10
2018-03-17T09:10:39.097Z,60.57
2018-03-17T09:13:06.588Z,60.83
2018-03-17T09:15:34.113Z,56.93
2018-03-17T09:18:01.822Z,58.30
2018-03-17T09:20:29.488Z,55.67
2018-03-17T09:22:57.046Z,57.17
2018-03-17T09:25:24.665Z,63.27
2018-03-17T09:27:52.215Z,58.57
2018-03-17T09:30:19.740Z,53.77
2018-03-17T09:32:47.223Z,57.93
2018-03-17T09:35:14.697Z,58.73
2018-03-17T09:37:42.477Z,57.23
2018-03-17T09:40:09.977Z,59.73
2018-03-17T09:42:37.427Z,56.87
2018-03-17T09:45:04.915Z,53.20
2018-03-17T09:47:32.411Z,64.87
2018-03-17T09:49:59.919Z,56.03
2018-03-17T09:52:27.487Z,51.27
2018-03-17T09:54:55.045Z,55.67
2018-03-17T09:57:23.433Z,50.47
2018-03-17T09:59:50.946Z,53.27
2018-03-17T10:02:18.563Z,57.07
2018-03-17T10:04:46.178Z,56.40
2018-03-17T10:07:13.737Z,48.70
2018-03-17T10:09:41.288Z,53.60
2018-03-17T10:12:08.778Z,49.83
2018-03-17T10:14:36.331Z,52.70
2018-03-17T10:17:03.934Z,47.87
2018-03-17T10:19:31.477Z,45.10
2018-03-17T10:21:59.019Z,50.57
2018-03-17T10:24:26.755Z,53.80
2018-03-17T10:26:55.379Z,47.70
2018-03-17T10:29:22.881Z,53.67
2018-03-17T10:31:50.365Z,47.73
2018-03-17T10:34:17.841Z,50.73
2018-03-17T10:36:48.510Z,46.80
2018-03-17T10:39:16.349Z,47.53
2018-03-17T10:41:43.948Z,44.83
2018-03-17T10:44:11.441Z,45.47
2018-03-17T10:46:38.953Z,49.27
2018-03-17T10:49:06.419Z,46.67
2018-03-17T10:51:33.901Z,47.03
2018-03-17T10:54:01.388Z,47.60
2018-03-17T10:56:28.972Z,46.77
2018-03-17T10:58:56.508Z,46.90
2018-03-17T11:01:25.915Z,49.43
2018-03-17T11:03:53.379Z,56.00
2018-03-17T11:06:21.107Z,46.77
2018-03-17T11:21:43.740Z,47.08
2018-03-17T11:24:11.329Z,46.55
2018-03-17T11:26:38.867Z,48.57
2018-03-17T11:29:06.931Z,51.15
2018-03-17T11:31:37.348Z,53.67
2018-03-17T11:34:08.250Z,52.90
2018-03-17T11:52:40.917Z,50.25
2018-03-17T11:55:08.492Z,57.00
2018-03-17T11:57:36.042Z,54.10
2018-03-17T12:00:04.354Z,54.35
2018-03-17T12:02:32.362Z,53.47
2018-03-17T12:04:59.868Z,56.00
2018-03-17T12:07:28.858Z,61.45
2018-03-17T12:09:56.501Z,56.28
2018-03-17T12:12:24.328Z,57.77
2018-03-17T12:14:51.977Z,54.85
2018-03-17T12:17:19.757Z,61.50
2018-03-17T12:19:47.337Z,55.83
2018-03-17T12:22:19.507Z,54.17
2018-03-17T12:24:48.821Z,53.78
2018-03-17T12:27:20.628Z,56.58
2018-03-17T12:29:48.216Z,49.55
2018-03-17T12:32:16.184Z,56.78
2018-03-17T12:34:43.699Z,57.45
2018-03-17T12:37:12.351Z,65.62
2018-03-17T12:39:39.976Z,65.35
2018-03-17T12:42:07.826Z,62.90
2018-03-17T12:44:37.524Z,56.17
2018-03-17T12:47:05.958Z,56.50
2018-03-17T12:49:34.841Z,60.15
2018-03-17T13:05:02.099Z,50.50
2018-03-17T13:07:29.652Z,56.22
2018-03-17T13:09:57.199Z,59.38
2018-03-17T13:12:26.756Z,56.65
2018-03-17T13:14:58.459Z,54.08
2018-03-17T13:29:21.484Z,55.60
2018-03-17T13:31:49.448Z,49.03
2018-03-17T13:37:00.962Z,57.62
2018-03-17T13:39:28.666Z,54.50
2018-03-17T13:41:56.151Z,59.53
2018-03-17T13:44:23.624Z,56.83
2018-03-17T13:46:52.367Z,54.28
2018-03-17T13:49:20.824Z,56.67
2018-03-17T13:51:48.304Z,53.15
2018-03-17T13:54:15.796Z,53.83
2018-03-17T13:56:43.312Z,51.53
2018-03-17T13:59:10.796Z,51.80
2018-03-17T14:01:39.411Z,58.97
2018-03-17T14:04:06.891Z,55.42
2018-03-17T14:06:34.436Z,54.45
2018-03-17T14:09:01.923Z,60.75
2018-03-17T14:11:30.322Z,52.75
2018-03-17T14:14:02.474Z,56.80
2018-03-17T14:16:31.686Z,53.42
2018-03-17T14:18:59.236Z,57.90
2018-03-17T14:21:26.727Z,59.08
2018-03-17T14:23:54.307Z,54.75
2018-03-17T14:26:21.755Z,60.70
2018-03-17T14:28:49.461Z,56.35
2018-03-17T14:31:17.146Z,56.40
2018-03-17T14:33:44.547Z,57.33
2018-03-17T14:36:12.044Z,57.30
2018-03-17T14:38:40.316Z,63.60
2018-03-17T14:41:07.847Z,58.33
2018-03-17T14:43:35.375Z,59.63
2018-03-17T14:46:02.882Z,56.70
2018-03-17T14:48:30.980Z,58.50
2018-03-17T14:50:58.539Z,61.83
2018-03-17T14:53:26.116Z,57.85
2018-03-17T14:55:53.771Z,61.33
2018-03-17T14:58:21.601Z,59.83
2018-03-17T15:00:49.105Z,65.25
2018-03-17T15:03:17.104Z,64.57
2018-03-17T15:05:44.587Z,61.08
2018-03-17T15:08:12.130Z,63.47
2018-03-17T15:10:39.677Z,60.95
2018-03-17T15:13:08.873Z,56.33
2018-03-17T15:15:38.080Z,56.75
2018-03-17T15:18:05.707Z,56.47
2018-03-17T15:20:34.878Z,61.58
2018-03-17T15:23:02.457Z,58.47
2018-03-17T15:25:29.962Z,62.45
2018-03-17T15:27:57.456Z,56.70
2018-03-17T15:30:26.864Z,62.55
2018-03-17T15:32:54.356Z,59.70
2018-03-17T15:35:21.828Z,63.65
2018-03-17T15:37:49.488Z,65.40
2018-03-17T15:40:17.508Z,59.13
2018-03-17T15:42:45.097Z,63.80
2018-03-17T15:45:17.756Z,62.13
2018-03-17T15:47:49.932Z,55.40
2018-03-17T15:50:19.584Z,60.95
2018-03-17T15:52:50.639Z,60.58
2018-03-17T15:55:18.225Z,63.53
2018-03-17T15:57:45.742Z,60.30
2018-03-17T16:00:13.228Z,63.67
2018-03-17T16:02:41.375Z,60.53
2018-03-17T16:05:08.883Z,55.92
2018-03-17T16:07:36.687Z,56.90
2018-03-17T16:10:06.199Z,59.30
2018-03-17T16:12:33.757Z,56.20
2018-03-17T16:15:01.243Z,55.30
2018-03-17T16:17:28.981Z,56.92
2018-03-17T16:19:56.482Z,64.18
2018-03-17T16:22:24.004Z,53.90
2018-03-17T16:24:53.222Z,56.83
2018-03-17T16:27:20.945Z,56.53
2018-03-17T16:29:49.384Z,56.13
2018-03-17T16:32:18.271Z,50.92
2018-03-17T16:34:46.172Z,51.45
2018-03-17T16:37:13.757Z,50.53
2018-03-17T16:39:41.265Z,52.13
2018-03-17T16:42:08.776Z,47.47
2018-03-17T16:44:36.529Z,50.60
2018-03-17T16:47:04.149Z,56.22
2018-03-17T16:49:31.676Z,45.58
2018-03-17T16:51:59.214Z,49.42
2018-03-17T16:54:28.283Z,47.83
2018-03-17T16:56:55.949Z,67.25
2018-03-17T16:59:23.463Z,97.15
2018-03-17T17:01:50.955Z,52.75
2018-03-17T17:04:18.443Z,55.35
2018-03-17T17:06:46.228Z,49.28
2018-03-17T17:09:13.813Z,44.47
2018-03-17T17:11:41.312Z,47.47
2018-03-17T17:14:08.831Z,66.18
2018-03-17T17:16:36.324Z,63.87
2018-03-17T17:19:03.816Z,54.22
2018-03-17T17:21:31.407Z,54.67
2018-03-17T17:23:58.946Z,55.25
2018-03-17T17:26:26.488Z,49.47
2018-03-17T17:28:53.968Z,44.53
2018-03-17T17:31:21.761Z,46.75
2018-03-17T17:33:49.283Z,43.28
2018-03-17T17:36:17.481Z,42.72
2018-03-17T17:38:44.977Z,43.35
2018-03-17T17:41:14.597Z,51.45
2018-03-17T17:56:45.281Z,61.33
2018-03-17T17:59:13.319Z,55.25
2018-03-17T18:11:30.356Z,53.05
2018-03-17T18:29:34.658Z,57.95
2018-03-17T18:32:02.375Z,50.20
2018-03-17T18:34:29.985Z,50.05
2018-03-17T18:36:59.544Z,60.75
2018-03-17T18:39:27.281Z,52.70
2018-03-17T18:41:54.800Z,52.33
2018-03-17T18:44:22.292Z,44.72
2018-03-17T18:46:49.830Z,48.13
2018-03-17T18:49:17.437Z,52.42
2018-03-17T18:51:44.923Z,45.03
2018-03-17T18:54:12.434Z,42.05
2018-03-17T18:56:39.948Z,49.33
2018-03-17T18:59:07.450Z,42.92
2018-03-17T19:01:34.943Z,43.75
2018-03-17T19:04:02.472Z,50.05
2018-03-17T19:06:29.982Z,44.65
2018-03-17T19:08:57.481Z,43.33
2018-03-17T19:11:24.993Z,47.75
2018-03-17T19:13:52.550Z,46.58
2018-03-17T19:16:20.032Z,75.68
2018-03-17T19:18:47.525Z,48.20
2018-03-17T19:21:15.040Z,49.28
2018-03-17T19:23:42.622Z,54.88
2018-03-17T19:26:10.135Z,49.20
2018-03-17T19:28:37.632Z,44.78
2018-03-17T19:31:05.181Z,52.13
2018-03-17T19:33:32.653Z,44.75
2018-03-17T19:36:00.131Z,43.90
2018-03-17T19:38:27.619Z,42.90
2018-03-17T19:40:55.167Z,38.85
2018-03-17T19:43:22.665Z,45.90
2018-03-17T19:45:50.182Z,35.67
2018-03-17T19:48:17.747Z,46.05
2018-03-17T19:50:45.249Z,36.50
2018-03-17T19:53:12.724Z,36.58
2018-03-17T19:55:40.259Z,40.45
2018-03-17T19:58:07.745Z,36.22
2018-03-17T20:00:35.220Z,40.05
2018-03-17T20:03:02.759Z,45.97
2018-03-17T20:05:30.296Z,40.83
2018-03-17T20:07:57.828Z,43.10
2018-03-17T20:10:25.355Z,37.72
2018-03-17T20:12:52.833Z,32.00
2018-03-17T20:15:20.356Z,42.55
2018-03-17T20:17:47.862Z,39.78
2018-03-17T20:20:16.595Z,45.65
2018-03-17T20:22:44.132Z,37.45
2018-03-17T20:25:11.651Z,43.65
2018-03-17T20:27:39.142Z,38.08
2018-03-17T20:30:06.630Z,38.50
2018-03-17T20:32:34.107Z,39.13
2018-03-17T20:35:01.659Z,37.10
2018-03-17T20:37:29.169Z,41.90
2018-03-17T20:39:56.644Z,38.70
2018-03-17T20:42:24.510Z,40.47
2018-03-17T20:44:52.034Z,44.35
2018-03-17T20:47:19.530Z,34.83
2018-03-17T20:49:46.996Z,33.03
2018-03-17T20:52:14.769Z,35.30
2018-03-17T20:54:42.252Z,33.67
2018-03-17T20:57:09.736Z,33.55
2018-03-17T20:59:37.223Z,31.23
2018-03-17T21:02:04.753Z,33.03
2018-03-17T21:04:32.251Z,36.58
2018-03-17T21:06:59.772Z,31.00
2018-03-17T21:09:27.261Z,25.30
2018-03-17T21:11:54.837Z,31.08
2018-03-17T21:14:22.331Z,31.42
2018-03-17T21:16:49.840Z,35.45
2018-03-17T21:19:17.388Z,30.62
2018-03-17T21:21:44.869Z,32.70
2018-03-17T21:24:12.376Z,31.90
2018-03-17T21:26:39.908Z,40.42
2018-03-17T21:29:07.447Z,33.15
2018-03-17T21:31:34.966Z,37.35
2018-03-17T21:34:02.436Z,33.97
2018-03-17T21:36:29.923Z,35.30
2018-03-17T21:38:57.425Z,43.50
2018-03-17T21:41:24.926Z,41.17
2018-03-17T21:43:52.464Z,31.85
2018-03-17T21:46:20.123Z,34.25
2018-03-17T21:48:47.747Z,27.58
2018-03-17T21:53:48.542Z,27.87
2018-03-17T21:56:17.092Z,26.60
2018-03-17T21:58:46.276Z,26.10
2018-03-17T22:01:13.743Z,26.67
2018-03-17T22:03:42.033Z,20.75
2018-03-17T22:06:09.813Z,25.90
2018-03-17T22:11:21.110Z,26.80
2018-03-17T22:16:23.186Z,22.60
2018-03-17T22:28:34.277Z,23.23
2018-03-17T22:31:02.810Z,27.98
2018-03-17T22:33:30.318Z,23.62
2018-03-17T22:35:59.831Z,22.62
2018-03-17T22:51:23.425Z,24.42
2018-03-17T22:53:50.915Z,23.15
2018-03-17T22:56:18.399Z,20.62
2018-03-17T22:58:45.866Z,21.92
2018-03-17T23:01:13.352Z,18.48
2018-03-17T23:03:40.842Z,22.17
2018-03-17T23:06:08.356Z,25.30
2018-03-17T23:08:35.822Z,22.65
2018-03-17T23:11:03.352Z,24.15
2018-03-17T23:13:30.859Z,22.52
2018-03-17T23:15:58.361Z,24.10
2018-03-17T23:18:26.584Z,23.75
2018-03-17T23:30:35.325Z,21.25
2018-03-17T23:33:03.171Z,21.73
2018-03-17T23:35:35.023Z,22.15
2018-03-17T23:38:04.301Z,19.45
2018-03-17T23:40:36.259Z,17.42
2018-03-17T23:43:04.086Z,19.08
2018-03-17T23:45:45.765Z,17.60
2018-03-17T23:48:14.869Z,17.80
2018-03-17T23:50:42.898Z,16.62
2018-03-17T23:53:10.488Z,20.55
2018-03-17T23:55:38.161Z,19.45
2018-03-17T23:58:07.910Z,16.45
